Shinwamaru — SHINWA — position and weather

sailwx.info

Track history (hours):
 
Tides and Currents Weather Stations Pressure Air Temp Water Temp Dewpoint Dewpoint Depression Visibility Wind Speed Wind Dir Waves Ship Positions

Shinwamaru

Last reported at 2018-Jan-22 12:33 UTC. Time now 2018-Jan-22 13:54 UTC.
Position N 35°27' E 139°40'.

Length 12 m.

Type: Tug. MMSI: 431009702.

Date/timePositionNaut miles runAvg speedWind from/ knotsBaromVisibWave heightAir tempDewpointWater temp
2018-Jan-22 12:33N 35°27' E 139°40'0 0.1
2018-Jan-22 12:30N 35°27' E 139°40'3 6.2
2018-Jan-22 12:00N 35°29' E 139°42'4 2.9
2018-Jan-22 10:43N 35°31' E 139°46'2 0.2
2018-Jan-21 20:05N 35°30' E 139°49'3 1.6
2018-Jan-21 18:20N 35°30' E 139°45'3 8.1
2018-Jan-21 17:56N 35°29' E 139°42'3 6.4
2018-Jan-21 17:30N 35°27' E 139°40'0 0.0
2018-Jan-21 06:12N 35°27' E 139°40'1 4.8
2018-Jan-21 06:00N 35°27' E 139°41'3 6.6
2018-Jan-21 05:30N 35°24' E 139°39'1 2.6
2018-Jan-21 05:00N 35°23' E 139°38'2 4.6
2018-Jan-21 04:29N 35°22' E 139°41'3 6.6
2018-Jan-21 04:00N 35°20' E 139°43'4 6.9
2018-Jan-21 03:29N 35°17' E 139°45'4 6.5
2018-Jan-21 02:49N 35°13' E 139°47'2 5.3
2018-Jan-21 02:29N 35°11' E 139°47'3 7.3
2018-Jan-21 02:00N 35°07' E 139°47'4 7.4
2018-Jan-21 01:30N 35°04' E 139°47'5 4.5
2018-Jan-21 00:23N 34°60' E 139°51'4 7.9
2018-Jan-20 23:53N 35°03' E 139°48'3 8.0
2018-Jan-20 23:29N 35°06' E 139°47'4 8.5
2018-Jan-20 22:59N 35°10' E 139°47'3 6.2
2018-Jan-20 22:30N 35°13' E 139°46'4 8.2
2018-Jan-20 22:00N 35°17' E 139°44'4 8.3
2018-Jan-20 21:29N 35°21' E 139°42'4 7.8
2018-Jan-20 20:59N 35°25' E 139°43'3 6.5
2018-Jan-20 20:30N 35°27' E 139°40'  
2018-Jan-18 03:54N 35°27' E 139°40'2 4.6
2018-Jan-18 03:31N 35°28' E 139°41'1 2.4
2018-Jan-18 03:00N 35°29' E 139°42'2 3.8
2018-Jan-18 02:23N 35°31' E 139°44'2 5.4
2018-Jan-18 01:59N 35°29' E 139°42'3 6.2
2018-Jan-18 01:30N 35°28' E 139°39'  
Track history (hours):
 
Tides and Currents Weather Stations Pressure Air Temp Water Temp Dewpoint Dewpoint Depression Visibility Wind Speed Wind Dir Waves Ship Positions

Shinwamaru

Last reported at 2018-Jan-22 12:33 UTC. Time now 2018-Jan-22 13:54 UTC.
Position N 35°27' E 139°40'.

Length 12 m.

Type: Tug. MMSI: 431009702.

Date/timePositionNaut miles runAvg speedWind from/ knotsBaromVisibWave heightAir tempDewpointWater temp
2018-Jan-22 12:33N 35°27' E 139°40'0 0.1
2018-Jan-22 12:30N 35°27' E 139°40'3 6.2
2018-Jan-22 12:00N 35°29' E 139°42'4 2.9
2018-Jan-22 10:43N 35°31' E 139°46'2 0.2
2018-Jan-21 20:05N 35°30' E 139°49'3 1.6
2018-Jan-21 18:20N 35°30' E 139°45'3 8.1
2018-Jan-21 17:56N 35°29' E 139°42'3 6.4
2018-Jan-21 17:30N 35°27' E 139°40'0 0.0
2018-Jan-21 06:12N 35°27' E 139°40'1 4.8
2018-Jan-21 06:00N 35°27' E 139°41'3 6.6
2018-Jan-21 05:30N 35°24' E 139°39'1 2.6
2018-Jan-21 05:00N 35°23' E 139°38'2 4.6
2018-Jan-21 04:29N 35°22' E 139°41'3 6.6
2018-Jan-21 04:00N 35°20' E 139°43'4 6.9
2018-Jan-21 03:29N 35°17' E 139°45'4 6.5
2018-Jan-21 02:49N 35°13' E 139°47'2 5.3
2018-Jan-21 02:29N 35°11' E 139°47'3 7.3
2018-Jan-21 02:00N 35°07' E 139°47'4 7.4
2018-Jan-21 01:30N 35°04' E 139°47'5 4.5
2018-Jan-21 00:23N 34°60' E 139°51'4 7.9
2018-Jan-20 23:53N 35°03' E 139°48'3 8.0
2018-Jan-20 23:29N 35°06' E 139°47'4 8.5
2018-Jan-20 22:59N 35°10' E 139°47'3 6.2
2018-Jan-20 22:30N 35°13' E 139°46'4 8.2
2018-Jan-20 22:00N 35°17' E 139°44'4 8.3
2018-Jan-20 21:29N 35°21' E 139°42'4 7.8
2018-Jan-20 20:59N 35°25' E 139°43'3 6.5
2018-Jan-20 20:30N 35°27' E 139°40'  
2018-Jan-18 03:54N 35°27' E 139°40'2 4.6
2018-Jan-18 03:31N 35°28' E 139°41'1 2.4
2018-Jan-18 03:00N 35°29' E 139°42'2 3.8
2018-Jan-18 02:23N 35°31' E 139°44'2 5.4
2018-Jan-18 01:59N 35°29' E 139°42'3 6.2
2018-Jan-18 01:30N 35°28' E 139°39'  

Dump ship's entire track history